AFR208 RPLL-LFPG
Flight info
| Callsign | AFR208 |
|---|---|
| Flight time | N/A |
| Altitude | 30000 |
| Route | SIRCA2R SIRCA L628 IBOBI/N0505F280 L628 ARESI/K0950F300 L628 PCA G474 PLK B202 BOMPA/N0515F300 B202 UBL G473 BGO L507 TEBOV/N0512F320 L507 CEA R460 LKN M890 JAL R594 SSB L626 DPN A589 BUTOP M875 NITIV/N0499F340 M875 DI N644 LEMOD A909 NINOP B475 DOLOS B449 ETRAP B447 KRS B143 TUNEK A909 RODAR M11 ERLEV L850 ADEKI N644 LAGAS/N0488F360 DCT ROLIN DCT OLDUD DCT ODERO L746 LUGEB DCT INVED DCT GOTAR DCT ERKIR L608 KPT L856 RAVED Y112 HOC/N0485F370 DCT MOROK/N0487F350 DCT PENDU DCT JAVVU DCT GIVRI/N0483F380 DCT TINIL |
| Aircraft | B77W/H-SDE1E2E3FGHIJ2J3J4J5M1RWXY/LB1D1 |
Departure
| Time | 2026-05-08 00:07 |
|---|---|
| Airport | Ninoy Aquino International Airport (RPLL) |
Arrival
| Time | N/A |
|---|---|
| Airport | Charles de Gaulle International Airport (LFPG) |
| Time | Latitude | Longitude | Altitude | Speed | Heading |
|---|---|---|---|---|---|
| 2026-05-08 00:02 | 14.50626 | 121.00756 | 66 ft | 5 kts | 149° |
| 2026-05-08 00:02 | 14.50584 | 121.00782 | 65 ft | 8 kts | 151° |
| 2026-05-08 00:03 | 14.50537 | 121.00808 | 63 ft | 8 kts | 150° |
| 2026-05-08 00:03 | 14.50487 | 121.00826 | 66 ft | 8 kts | 172° |
| 2026-05-08 00:03 | 14.50434 | 121.00819 | 70 ft | 8 kts | 193° |
| 2026-05-08 00:03 | 14.50385 | 121.00799 | 67 ft | 8 kts | 213° |
| 2026-05-08 00:04 | 14.50354 | 121.00755 | 64 ft | 8 kts | 240° |
| 2026-05-08 00:04 | 14.50327 | 121.00708 | 62 ft | 8 kts | 239° |
| 2026-05-08 00:04 | 14.50294 | 121.00652 | 65 ft | 11 kts | 239° |
| 2026-05-08 00:04 | 14.50253 | 121.00575 | 72 ft | 14 kts | 241° |
| 2026-05-08 00:05 | 14.50199 | 121.00479 | 64 ft | 17 kts | 240° |
| 2026-05-08 00:05 | 14.50138 | 121.00367 | 64 ft | 18 kts | 240° |
| 2026-05-08 00:05 | 14.50074 | 121.00253 | 63 ft | 18 kts | 240° |
| 2026-05-08 00:05 | 14.50011 | 121.00137 | 63 ft | 18 kts | 241° |
| 2026-05-08 00:06 | 14.49948 | 121.00022 | 68 ft | 18 kts | 241° |
| 2026-05-08 00:06 | 14.49844 | 120.99983 | 63 ft | 18 kts | 153° |
| 2026-05-08 00:06 | 14.49838 | 121.00100 | 63 ft | 18 kts | 59° |
| 2026-05-08 00:06 | 14.49923 | 121.00251 | 65 ft | 47 kts | 59° |
| 2026-05-08 00:07 | 14.50209 | 121.00771 | 62 ft | 121 kts | 60° |
| 2026-05-08 00:07 | 14.50745 | 121.01742 | 66 ft | 189 kts | 61° |
| 2026-05-08 00:07 | 14.51464 | 121.03026 | 379 ft | 213 kts | 61° |
| 2026-05-08 00:07 | 14.52192 | 121.04365 | 1116 ft | 216 kts | 62° |
| 2026-05-08 00:08 | 14.52896 | 121.05739 | 1874 ft | 217 kts | 60° |
| 2026-05-08 00:08 | 14.53660 | 121.07067 | 2401 ft | 216 kts | 60° |
| 2026-05-08 00:08 | 14.54436 | 121.08400 | 2773 ft | 217 kts | 61° |
| 2026-05-08 00:08 | 14.55175 | 121.09745 | 3259 ft | 214 kts | 62° |
| 2026-05-08 00:09 | 14.55875 | 121.11075 | 3720 ft | 210 kts | 64° |
| 2026-05-08 00:09 | 14.56764 | 121.12272 | 3966 ft | 218 kts | 40° |
| 2026-05-08 00:09 | 14.58121 | 121.13060 | 4184 ft | 233 kts | 22° |
| 2026-05-08 00:09 | 14.59720 | 121.13458 | 4628 ft | 237 kts | 10° |
| 2026-05-08 00:10 | 14.61352 | 121.13528 | 5178 ft | 232 kts | 3° |
| 2026-05-08 00:10 | 14.62991 | 121.13519 | 5458 ft | 243 kts | 3° |
| 2026-05-08 00:10 | 14.64739 | 121.13486 | 5617 ft | 258 kts | 2° |
| 2026-05-08 00:10 | 14.66556 | 121.13380 | 5938 ft | 265 kts | 354° |
| 2026-05-08 00:11 | 14.68330 | 121.12766 | 6247 ft | 276 kts | 329° |
| 2026-05-08 00:11 | 14.69741 | 121.11363 | 6398 ft | 293 kts | 300° |
| 2026-05-08 00:11 | 14.70392 | 121.09358 | 6735 ft | 298 kts | 274° |
| 2026-05-08 00:11 | 14.70286 | 121.07264 | 7379 ft | 289 kts | 263° |
| 2026-05-08 00:12 | 14.70052 | 121.05150 | 7597 ft | 303 kts | 264° |
| 2026-05-08 00:12 | 14.69851 | 121.02974 | 8054 ft | 305 kts | 264° |
| 2026-05-08 00:12 | 14.69573 | 121.00785 | 8503 ft | 311 kts | 260° |
| 2026-05-08 00:12 | 14.69203 | 120.98551 | 8848 ft | 321 kts | 260° |
| 2026-05-08 00:13 | 14.68698 | 120.96267 | 9116 ft | 332 kts | 252° |
| 2026-05-08 00:13 | 14.67955 | 120.94030 | 9846 ft | 324 kts | 249° |
| 2026-05-08 00:13 | 14.67447 | 120.92590 | 10289 ft | 323 kts | 249° |
| 2026-05-08 00:13 | 14.66383 | 120.89638 | 10570 ft | 342 kts | 249° |
| 2026-05-08 00:14 | 14.65811 | 120.88058 | 10675 ft | 353 kts | 249° |
| 2026-05-08 00:14 | 14.64639 | 120.84809 | 10846 ft | 375 kts | 249° |
| 2026-05-08 00:14 | 14.63714 | 120.82238 | 11081 ft | 388 kts | 249° |
| 2026-05-08 00:14 | 14.63073 | 120.80458 | 11315 ft | 394 kts | 249° |
| 2026-05-08 00:15 | 14.62113 | 120.77789 | 11786 ft | 399 kts | 249° |
| 2026-05-08 00:15 | 14.61142 | 120.75093 | 12370 ft | 401 kts | 250° |
| 2026-05-08 00:15 | 14.60170 | 120.72390 | 12961 ft | 403 kts | 250° |
| 2026-05-08 00:15 | 14.59190 | 120.69669 | 13493 ft | 406 kts | 250° |
| 2026-05-08 00:16 | 14.58218 | 120.66967 | 13970 ft | 409 kts | 250° |
| 2026-05-08 00:16 | 14.57223 | 120.64207 | 14430 ft | 412 kts | 250° |
| 2026-05-08 00:16 | 14.56221 | 120.61427 | 14888 ft | 414 kts | 250° |
| 2026-05-08 00:16 | 14.55212 | 120.58628 | 15341 ft | 417 kts | 250° |
| 2026-05-08 00:17 | 14.54197 | 120.55813 | 15776 ft | 421 kts | 250° |
| 2026-05-08 00:17 | 14.53171 | 120.52970 | 16222 ft | 424 kts | 249° |
| 2026-05-08 00:17 | 14.52140 | 120.50112 | 16668 ft | 426 kts | 249° |
| 2026-05-08 00:17 | 14.51102 | 120.47238 | 17084 ft | 429 kts | 249° |
| 2026-05-08 00:18 | 14.50055 | 120.44340 | 17478 ft | 432 kts | 249° |
| 2026-05-08 00:18 | 14.48998 | 120.41416 | 17859 ft | 437 kts | 249° |
| 2026-05-08 00:18 | 14.47936 | 120.38477 | 18312 ft | 437 kts | 249° |
| 2026-05-08 00:18 | 14.46872 | 120.35536 | 18737 ft | 437 kts | 249° |
| 2026-05-08 00:19 | 14.45910 | 120.32555 | 19018 ft | 441 kts | 258° |
| 2026-05-08 00:19 | 14.45562 | 120.29412 | 19351 ft | 442 kts | 267° |
| 2026-05-08 00:19 | 14.45420 | 120.26249 | 19751 ft | 443 kts | 268° |
| 2026-05-08 00:19 | 14.45274 | 120.23053 | 20013 ft | 447 kts | 267° |
| 2026-05-08 00:20 | 14.45099 | 120.19841 | 20316 ft | 451 kts | 266° |
| 2026-05-08 00:20 | 14.44894 | 120.16602 | 20684 ft | 452 kts | 266° |
| 2026-05-08 00:20 | 14.44669 | 120.13366 | 21114 ft | 452 kts | 266° |
| 2026-05-08 00:20 | 14.44435 | 120.10133 | 21440 ft | 455 kts | 266° |
| 2026-05-08 00:21 | 14.44195 | 120.06868 | 21743 ft | 458 kts | 266° |
| 2026-05-08 00:21 | 14.43954 | 120.03584 | 22131 ft | 459 kts | 266° |
| 2026-05-08 00:21 | 14.43715 | 120.00305 | 22514 ft | 459 kts | 266° |
| 2026-05-08 00:21 | 14.43475 | 119.97011 | 22842 ft | 462 kts | 266° |
| 2026-05-08 00:22 | 14.43234 | 119.93696 | 23126 ft | 465 kts | 266° |
| 2026-05-08 00:22 | 14.43001 | 119.90364 | 23444 ft | 466 kts | 266° |
| 2026-05-08 00:22 | 14.42773 | 119.87025 | 23738 ft | 467 kts | 266° |
| 2026-05-08 00:22 | 14.42544 | 119.83669 | 24000 ft | 469 kts | 266° |
| 2026-05-08 00:23 | 14.42312 | 119.80304 | 24248 ft | 471 kts | 266° |
| 2026-05-08 00:23 | 14.42077 | 119.76967 | 24506 ft | 473 kts | 266° |
| 2026-05-08 00:23 | 14.41827 | 119.73582 | 24766 ft | 475 kts | 266° |
| 2026-05-08 00:23 | 14.41568 | 119.70177 | 24983 ft | 477 kts | 266° |
| 2026-05-08 00:24 | 14.41307 | 119.66750 | 25195 ft | 480 kts | 266° |
| 2026-05-08 00:24 | 14.41046 | 119.63308 | 25438 ft | 482 kts | 266° |
| 2026-05-08 00:24 | 14.40785 | 119.59860 | 25701 ft | 483 kts | 266° |
| 2026-05-08 00:24 | 14.40523 | 119.56394 | 25899 ft | 486 kts | 266° |
| 2026-05-08 00:25 | 14.40260 | 119.52914 | 26096 ft | 488 kts | 266° |
| 2026-05-08 00:25 | 14.39997 | 119.49424 | 26383 ft | 488 kts | 266° |
| 2026-05-08 00:25 | 14.39736 | 119.45931 | 26624 ft | 490 kts | 266° |
| 2026-05-08 00:25 | 14.39477 | 119.42415 | 26778 ft | 493 kts | 266° |
| 2026-05-08 00:26 | 14.39217 | 119.38874 | 26995 ft | 495 kts | 267° |
| 2026-05-08 00:26 | 14.38956 | 119.35336 | 27280 ft | 495 kts | 266° |
| 2026-05-08 00:26 | 14.38694 | 119.31791 | 27458 ft | 497 kts | 266° |
| 2026-05-08 00:26 | 14.38429 | 119.28218 | 27603 ft | 501 kts | 266° |
| 2026-05-08 00:27 | 14.38163 | 119.24634 | 27840 ft | 501 kts | 266° |
| 2026-05-08 00:27 | 14.37896 | 119.21054 | 28094 ft | 501 kts | 266° |
| 2026-05-08 00:27 | 14.37626 | 119.17458 | 28275 ft | 503 kts | 266° |
| 2026-05-08 00:27 | 14.37360 | 119.13900 | 28411 ft | 506 kts | 266° |
| 2026-05-08 00:28 | 14.37088 | 119.10279 | 28593 ft | 507 kts | 266° |
| 2026-05-08 00:28 | 14.36814 | 119.06639 | 28718 ft | 510 kts | 266° |
| 2026-05-08 00:28 | 14.36539 | 119.02989 | 28844 ft | 512 kts | 266° |
| 2026-05-08 00:28 | 14.36262 | 118.99327 | 29054 ft | 512 kts | 266° |
| 2026-05-08 00:29 | 14.35985 | 118.95666 | 29275 ft | 512 kts | 266° |
| 2026-05-08 00:29 | 14.35707 | 118.92003 | 29389 ft | 514 kts | 266° |
| 2026-05-08 00:29 | 14.35427 | 118.88318 | 29516 ft | 516 kts | 266° |
| 2026-05-08 00:29 | 14.35146 | 118.84635 | 29750 ft | 515 kts | 266° |
| 2026-05-08 00:30 | 14.34582 | 118.77246 | 29879 ft | 518 kts | 266° |
| 2026-05-08 00:30 | 14.34012 | 118.69817 | 29907 ft | 521 kts | 266° |
| 2026-05-08 00:31 | 14.33436 | 118.62341 | 29911 ft | 524 kts | 266° |
| 2026-05-08 00:31 | 14.32856 | 118.54846 | 29902 ft | 525 kts | 266° |
| 2026-05-08 00:32 | 14.32272 | 118.47332 | 29906 ft | 525 kts | 266° |
| 2026-05-08 00:32 | 14.31686 | 118.39820 | 29899 ft | 525 kts | 266° |
| 2026-05-08 00:33 | 14.31099 | 118.32312 | 29903 ft | 526 kts | 266° |
| 2026-05-08 00:33 | 14.30505 | 118.24799 | 29907 ft | 526 kts | 266° |
| 2026-05-08 00:34 | 14.29908 | 118.17278 | 29901 ft | 526 kts | 266° |
| 2026-05-08 00:34 | 14.29313 | 118.09806 | 29908 ft | 526 kts | 266° |
| 2026-05-08 00:35 | 14.28712 | 118.02283 | 29897 ft | 527 kts | 266° |
| 2026-05-08 00:35 | 14.28108 | 117.94756 | 29906 ft | 526 kts | 266° |
| 2026-05-08 00:36 | 14.27502 | 117.87234 | 29905 ft | 526 kts | 266° |
| 2026-05-08 00:36 | 14.26894 | 117.79722 | 29903 ft | 525 kts | 266° |
| 2026-05-08 00:37 | 14.26285 | 117.72215 | 29911 ft | 526 kts | 266° |
| 2026-05-08 00:38 | 14.25370 | 117.61001 | 29904 ft | 525 kts | 266° |
| 2026-05-08 00:38 | 14.24754 | 117.53492 | 29895 ft | 526 kts | 266° |
| 2026-05-08 00:39 | 14.24137 | 117.45985 | 29907 ft | 525 kts | 266° |
| 2026-05-08 00:39 | 14.23517 | 117.38488 | 29907 ft | 524 kts | 266° |
| 2026-05-08 00:40 | 14.22896 | 117.30989 | 29909 ft | 525 kts | 266° |
| 2026-05-08 00:40 | 14.22272 | 117.23493 | 29910 ft | 525 kts | 266° |
| 2026-05-08 00:41 | 14.21645 | 117.15996 | 29891 ft | 525 kts | 266° |
| 2026-05-08 00:41 | 14.21016 | 117.08496 | 29912 ft | 525 kts | 266° |
| 2026-05-08 00:42 | 14.20385 | 117.00993 | 29910 ft | 525 kts | 265° |
| 2026-05-08 00:42 | 14.19752 | 116.93493 | 29908 ft | 525 kts | 266° |
| 2026-05-08 00:43 | 14.19113 | 116.85990 | 29909 ft | 525 kts | 266° |
| 2026-05-08 00:43 | 14.18470 | 116.78495 | 29904 ft | 526 kts | 266° |
| 2026-05-08 00:44 | 14.17830 | 116.71050 | 29913 ft | 525 kts | 266° |
| 2026-05-08 00:44 | 14.17183 | 116.63553 | 29905 ft | 525 kts | 266° |
| 2026-05-08 00:45 | 14.16535 | 116.56060 | 29904 ft | 525 kts | 266° |
| 2026-05-08 00:45 | 14.15884 | 116.48564 | 29905 ft | 526 kts | 266° |
| 2026-05-08 00:46 | 14.15228 | 116.41039 | 29905 ft | 528 kts | 266° |
| 2026-05-08 00:46 | 14.14567 | 116.33489 | 29908 ft | 530 kts | 266° |
| 2026-05-08 00:47 | 14.13902 | 116.25914 | 29910 ft | 531 kts | 266° |
| 2026-05-08 00:47 | 14.13234 | 116.18335 | 29902 ft | 532 kts | 266° |
| 2026-05-08 00:48 | 14.12563 | 116.10750 | 29906 ft | 531 kts | 266° |
| 2026-05-08 00:48 | 14.11890 | 116.03173 | 29905 ft | 531 kts | 266° |
| 2026-05-08 00:49 | 14.11216 | 115.95608 | 29901 ft | 530 kts | 266° |
| 2026-05-08 00:49 | 14.10540 | 115.88051 | 29902 ft | 529 kts | 266° |
| 2026-05-08 00:50 | 14.09867 | 115.80549 | 29905 ft | 529 kts | 266° |
| 2026-05-08 00:50 | 14.09189 | 115.73014 | 29901 ft | 528 kts | 266° |
| 2026-05-08 00:51 | 14.08508 | 115.65483 | 29909 ft | 528 kts | 266° |
| 2026-05-08 00:51 | 14.07825 | 115.57954 | 29914 ft | 527 kts | 266° |
| 2026-05-08 00:52 | 14.07142 | 115.50441 | 29905 ft | 527 kts | 266° |
| 2026-05-08 00:52 | 14.06455 | 115.42923 | 29904 ft | 527 kts | 266° |
| 2026-05-08 00:53 | 14.05767 | 115.35414 | 29905 ft | 527 kts | 266° |
| 2026-05-08 00:53 | 14.05077 | 115.27909 | 29910 ft | 526 kts | 266° |
| 2026-05-08 00:54 | 14.04389 | 115.20451 | 29907 ft | 526 kts | 266° |
| 2026-05-08 00:54 | 14.03695 | 115.12948 | 29908 ft | 526 kts | 266° |
| 2026-05-08 00:55 | 14.02998 | 115.05446 | 29903 ft | 526 kts | 266° |
| 2026-05-08 00:55 | 14.02299 | 114.97943 | 29911 ft | 526 kts | 266° |
| 2026-05-08 00:56 | 14.01598 | 114.90443 | 29904 ft | 526 kts | 266° |
| 2026-05-08 00:56 | 14.00894 | 114.82940 | 29903 ft | 526 kts | 266° |
| 2026-05-08 00:57 | 14.00188 | 114.75443 | 29905 ft | 526 kts | 266° |
| 2026-05-08 00:57 | 13.99481 | 114.67947 | 29902 ft | 526 kts | 266° |
| 2026-05-08 00:58 | 13.98770 | 114.60449 | 29905 ft | 526 kts | 266° |
| 2026-05-08 00:58 | 13.98057 | 114.52945 | 29903 ft | 526 kts | 266° |
| 2026-05-08 00:59 | 13.97354 | 114.45448 | 29902 ft | 526 kts | 267° |
| 2026-05-08 00:59 | 13.97265 | 114.37934 | 29913 ft | 524 kts | 272° |
| 2026-05-08 01:00 | 13.97377 | 114.30473 | 29910 ft | 525 kts | 272° |
| 2026-05-08 01:00 | 13.97464 | 114.22962 | 29909 ft | 525 kts | 272° |
| 2026-05-08 01:01 | 13.97520 | 114.15437 | 29908 ft | 525 kts | 272° |
| 2026-05-08 01:01 | 13.97565 | 114.07919 | 29912 ft | 525 kts | 272° |
| 2026-05-08 01:02 | 13.97609 | 114.00399 | 29903 ft | 525 kts | 272° |
| 2026-05-08 01:02 | 13.97653 | 113.92876 | 29904 ft | 525 kts | 272° |
| 2026-05-08 01:03 | 13.97695 | 113.85351 | 29910 ft | 525 kts | 271° |
| 2026-05-08 01:03 | 13.97735 | 113.77827 | 29904 ft | 525 kts | 272° |
| 2026-05-08 01:04 | 13.97772 | 113.70300 | 29912 ft | 525 kts | 271° |
| 2026-05-08 01:04 | 13.97807 | 113.62777 | 29905 ft | 526 kts | 271° |
| 2026-05-08 01:05 | 13.97834 | 113.56520 | 29912 ft | 526 kts | 271° |
| 2026-05-08 01:05 | 13.97865 | 113.48997 | 29907 ft | 526 kts | 271° |
| 2026-05-08 01:06 | 13.97894 | 113.41469 | 29910 ft | 526 kts | 271° |
| 2026-05-08 01:06 | 13.97920 | 113.33941 | 29915 ft | 526 kts | 271° |
| 2026-05-08 01:07 | 13.97944 | 113.26413 | 29902 ft | 526 kts | 271° |
| 2026-05-08 01:07 | 13.97965 | 113.18887 | 29913 ft | 526 kts | 271° |
| 2026-05-08 01:08 | 13.97984 | 113.11359 | 29914 ft | 526 kts | 271° |
| 2026-05-08 01:08 | 13.98002 | 113.03834 | 29914 ft | 526 kts | 271° |
| 2026-05-08 01:09 | 13.98014 | 112.96354 | 29908 ft | 526 kts | 271° |
| 2026-05-08 01:09 | 13.98024 | 112.88829 | 29915 ft | 525 kts | 271° |
| 2026-05-08 01:10 | 13.98031 | 112.81308 | 29908 ft | 525 kts | 271° |
| 2026-05-08 01:10 | 13.98036 | 112.73790 | 29911 ft | 526 kts | 271° |
| 2026-05-08 01:11 | 13.98040 | 112.66258 | 29912 ft | 525 kts | 271° |
| 2026-05-08 01:11 | 13.98041 | 112.58738 | 29912 ft | 526 kts | 271° |
| 2026-05-08 01:12 | 13.98039 | 112.51210 | 29917 ft | 526 kts | 271° |
| 2026-05-08 01:12 | 13.98035 | 112.43681 | 29913 ft | 526 kts | 271° |
| 2026-05-08 01:13 | 13.98030 | 112.36150 | 29906 ft | 526 kts | 271° |
| 2026-05-08 01:13 | 13.98021 | 112.28656 | 29910 ft | 526 kts | 271° |
| 2026-05-08 01:14 | 13.98011 | 112.21127 | 29924 ft | 526 kts | 271° |
| 2026-05-08 01:14 | 13.97998 | 112.13590 | 29917 ft | 526 kts | 271° |
| 2026-05-08 01:15 | 13.97982 | 112.06051 | 29908 ft | 526 kts | 271° |
| 2026-05-08 01:15 | 13.97965 | 111.98510 | 29922 ft | 526 kts | 271° |
| 2026-05-08 01:16 | 13.97945 | 111.90967 | 29914 ft | 527 kts | 271° |
| 2026-05-08 01:16 | 13.97922 | 111.83432 | 29922 ft | 527 kts | 271° |
| 2026-05-08 01:17 | 13.97898 | 111.75883 | 29914 ft | 527 kts | 271° |
| 2026-05-08 01:17 | 13.97871 | 111.68388 | 29914 ft | 527 kts | 271° |
| 2026-05-08 01:18 | 13.97842 | 111.60842 | 29911 ft | 527 kts | 271° |
| 2026-05-08 01:18 | 13.97810 | 111.53304 | 29920 ft | 527 kts | 271° |
| 2026-05-08 01:19 | 13.97777 | 111.45766 | 29929 ft | 527 kts | 271° |
| 2026-05-08 01:19 | 13.97742 | 111.38220 | 29913 ft | 527 kts | 271° |
| 2026-05-08 01:20 | 13.97706 | 111.30676 | 29920 ft | 527 kts | 271° |
| 2026-05-08 01:20 | 13.97667 | 111.23134 | 29912 ft | 527 kts | 271° |
| 2026-05-08 01:21 | 13.97625 | 111.15594 | 29918 ft | 527 kts | 271° |
| 2026-05-08 01:21 | 13.97582 | 111.08052 | 29926 ft | 527 kts | 271° |
| 2026-05-08 01:22 | 13.97536 | 111.00511 | 29915 ft | 527 kts | 271° |
| 2026-05-08 01:22 | 13.97487 | 110.92961 | 29927 ft | 527 kts | 271° |
| 2026-05-08 01:23 | 13.97436 | 110.85415 | 29924 ft | 527 kts | 271° |
| 2026-05-08 01:23 | 13.97384 | 110.77924 | 29931 ft | 527 kts | 271° |
| 2026-05-08 01:24 | 13.97328 | 110.70380 | 29919 ft | 527 kts | 271° |
| 2026-05-08 01:24 | 13.97271 | 110.62828 | 29932 ft | 527 kts | 271° |
| 2026-05-08 01:25 | 13.97211 | 110.55277 | 29932 ft | 527 kts | 271° |
| 2026-05-08 01:25 | 13.97148 | 110.47716 | 29927 ft | 528 kts | 271° |
| 2026-05-08 01:26 | 13.97083 | 110.40166 | 29925 ft | 528 kts | 271° |
| 2026-05-08 01:26 | 13.97016 | 110.32618 | 29927 ft | 528 kts | 271° |
| 2026-05-08 01:27 | 13.96947 | 110.25061 | 29930 ft | 527 kts | 271° |
| 2026-05-08 01:27 | 13.96875 | 110.17510 | 29930 ft | 527 kts | 271° |
| 2026-05-08 01:28 | 13.96801 | 110.09962 | 29938 ft | 527 kts | 271° |
| 2026-05-08 01:28 | 13.96726 | 110.02464 | 29928 ft | 527 kts | 271° |
| 2026-05-08 01:29 | 13.96655 | 109.94918 | 29926 ft | 527 kts | 271° |
| 2026-05-08 01:29 | 13.96600 | 109.87372 | 29932 ft | 527 kts | 271° |
| 2026-05-08 01:30 | 13.96543 | 109.79820 | 29937 ft | 527 kts | 271° |
| 2026-05-08 01:30 | 13.96480 | 109.72275 | 29942 ft | 527 kts | 271° |
| 2026-05-08 01:31 | 13.96414 | 109.64729 | 29939 ft | 527 kts | 271° |
| 2026-05-08 01:31 | 13.96347 | 109.57175 | 29932 ft | 527 kts | 271° |
| 2026-05-08 01:32 | 13.96275 | 109.49626 | 29935 ft | 527 kts | 270° |
| 2026-05-08 01:32 | 13.96186 | 109.42076 | 29935 ft | 528 kts | 270° |
| 2026-05-08 01:33 | 13.96090 | 109.34518 | 29945 ft | 528 kts | 270° |
| 2026-05-08 01:33 | 13.95995 | 109.26959 | 29947 ft | 528 kts | 270° |
| 2026-05-08 01:34 | 13.95899 | 109.19401 | 29936 ft | 528 kts | 270° |
| 2026-05-08 01:34 | 13.95801 | 109.11835 | 29937 ft | 528 kts | 270° |
| 2026-05-08 01:35 | 13.95710 | 109.04270 | 29959 ft | 528 kts | 271° |
| 2026-05-08 01:35 | 13.96009 | 108.96774 | 29966 ft | 527 kts | 274° |
| 2026-05-08 01:36 | 13.96426 | 108.89233 | 29962 ft | 528 kts | 274° |
| 2026-05-08 01:36 | 13.96827 | 108.81686 | 29958 ft | 528 kts | 274° |
| 2026-05-08 01:37 | 13.97200 | 108.74140 | 29968 ft | 528 kts | 274° |
| 2026-05-08 01:37 | 13.97565 | 108.66593 | 29973 ft | 528 kts | 274° |
| 2026-05-08 01:38 | 13.97930 | 108.59053 | 29976 ft | 527 kts | 274° |
| 2026-05-08 01:38 | 13.98292 | 108.51513 | 29967 ft | 527 kts | 274° |
| 2026-05-08 01:39 | 13.98653 | 108.43975 | 29984 ft | 527 kts | 274° |
| 2026-05-08 01:39 | 13.99013 | 108.36432 | 29981 ft | 528 kts | 273° |
| 2026-05-08 01:40 | 13.99369 | 108.28883 | 29977 ft | 528 kts | 273° |
| 2026-05-08 01:40 | 13.99724 | 108.21316 | 29981 ft | 529 kts | 273° |
| 2026-05-08 01:41 | 14.00075 | 108.13798 | 29977 ft | 529 kts | 273° |
| 2026-05-08 01:41 | 14.00557 | 108.06236 | 29961 ft | 529 kts | 279° |
| 2026-05-08 01:42 | 14.02487 | 107.98969 | 29975 ft | 527 kts | 292° |
| 2026-05-08 01:42 | 14.05794 | 107.92252 | 29972 ft | 526 kts | 300° |
| 2026-05-08 01:43 | 14.09361 | 107.85664 | 29963 ft | 526 kts | 300° |
| 2026-05-08 01:43 | 14.12876 | 107.79049 | 29967 ft | 527 kts | 299° |
| 2026-05-08 01:44 | 14.16362 | 107.72402 | 29942 ft | 527 kts | 299° |
| 2026-05-08 01:44 | 14.19846 | 107.65738 | 29965 ft | 528 kts | 298° |
| 2026-05-08 01:45 | 14.23308 | 107.59121 | 29955 ft | 528 kts | 299° |
| 2026-05-08 01:45 | 14.26799 | 107.52447 | 29947 ft | 529 kts | 299° |
| 2026-05-08 01:46 | 14.30289 | 107.45769 | 29940 ft | 529 kts | 299° |
| 2026-05-08 01:46 | 14.33776 | 107.39092 | 29942 ft | 529 kts | 299° |
| 2026-05-08 01:47 | 14.37281 | 107.32412 | 29952 ft | 530 kts | 299° |
| 2026-05-08 01:47 | 14.40795 | 107.25721 | 29935 ft | 531 kts | 299° |
| 2026-05-08 01:48 | 14.46064 | 107.15664 | 29924 ft | 531 kts | 299° |
| 2026-05-08 01:48 | 14.49578 | 107.08958 | 29927 ft | 531 kts | 299° |
| 2026-05-08 01:49 | 14.53070 | 107.02286 | 29948 ft | 532 kts | 299° |
| 2026-05-08 01:49 | 14.56579 | 106.95574 | 29939 ft | 532 kts | 299° |
| 2026-05-08 01:50 | 14.60089 | 106.88852 | 29926 ft | 531 kts | 299° |
| 2026-05-08 01:50 | 14.63594 | 106.82135 | 29942 ft | 531 kts | 299° |
| 2026-05-08 01:51 | 14.67100 | 106.75412 | 29941 ft | 531 kts | 299° |
| 2026-05-08 01:51 | 14.70597 | 106.68698 | 29946 ft | 531 kts | 298° |
| 2026-05-08 01:52 | 14.74102 | 106.61965 | 29944 ft | 532 kts | 298° |
| 2026-05-08 01:52 | 14.77608 | 106.55222 | 29948 ft | 533 kts | 298° |
| 2026-05-08 01:53 | 14.81116 | 106.48469 | 29951 ft | 534 kts | 298° |
| 2026-05-08 01:53 | 14.84606 | 106.41747 | 29934 ft | 534 kts | 298° |
| 2026-05-08 01:54 | 14.88117 | 106.34978 | 29932 ft | 534 kts | 298° |
| 2026-05-08 01:54 | 14.91627 | 106.28204 | 29941 ft | 535 kts | 298° |
| 2026-05-08 01:55 | 14.95141 | 106.21416 | 29956 ft | 535 kts | 298° |
| 2026-05-08 01:55 | 14.98653 | 106.14626 | 29952 ft | 535 kts | 298° |
| 2026-05-08 01:56 | 15.02164 | 106.07832 | 29931 ft | 536 kts | 298° |
| 2026-05-08 01:56 | 15.05673 | 106.01036 | 29919 ft | 536 kts | 298° |
| 2026-05-08 01:57 | 15.08588 | 105.95383 | 29930 ft | 534 kts | 298° |
| 2026-05-08 01:57 | 15.12075 | 105.88618 | 29903 ft | 532 kts | 298° |
| 2026-05-08 01:58 | 15.15543 | 105.81884 | 29909 ft | 529 kts | 298° |
| 2026-05-08 01:58 | 15.18611 | 105.74980 | 29905 ft | 528 kts | 288° |
| 2026-05-08 01:59 | 15.20174 | 105.67569 | 29911 ft | 528 kts | 275° |
| 2026-05-08 01:59 | 15.20574 | 105.59978 | 29916 ft | 529 kts | 273° |
| 2026-05-08 02:00 | 15.20924 | 105.52360 | 29938 ft | 530 kts | 273° |
| 2026-05-08 02:00 | 15.21327 | 105.44719 | 29942 ft | 532 kts | 274° |
| 2026-05-08 02:01 | 15.21756 | 105.37073 | 29931 ft | 533 kts | 274° |
| 2026-05-08 02:01 | 15.22184 | 105.29408 | 29935 ft | 533 kts | 273° |
| 2026-05-08 02:02 | 15.22606 | 105.21736 | 29943 ft | 533 kts | 273° |
| 2026-05-08 02:02 | 15.23024 | 105.14062 | 29951 ft | 533 kts | 273° |
| 2026-05-08 02:03 | 15.23439 | 105.06398 | 29950 ft | 533 kts | 273° |
| 2026-05-08 02:03 | 15.23850 | 104.98787 | 29960 ft | 533 kts | 273° |
| 2026-05-08 02:04 | 15.24335 | 104.91138 | 29973 ft | 533 kts | 278° |
| 2026-05-08 02:04 | 15.26094 | 104.83697 | 29973 ft | 533 kts | 290° |
| 2026-05-08 02:05 | 15.29246 | 104.76758 | 29986 ft | 534 kts | 298° |
| 2026-05-08 02:05 | 15.32735 | 104.69956 | 29978 ft | 535 kts | 297° |
| 2026-05-08 02:06 | 15.36054 | 104.63062 | 29955 ft | 535 kts | 297° |
| 2026-05-08 02:06 | 15.39414 | 104.56175 | 29959 ft | 536 kts | 297° |
| 2026-05-08 02:07 | 15.42802 | 104.49308 | 29950 ft | 536 kts | 297° |
| 2026-05-08 02:07 | 15.46190 | 104.42424 | 29947 ft | 536 kts | 297° |
| 2026-05-08 02:08 | 15.49564 | 104.35540 | 29951 ft | 536 kts | 297° |
| 2026-05-08 02:08 | 15.52910 | 104.28704 | 29955 ft | 535 kts | 297° |
| 2026-05-08 02:09 | 15.56267 | 104.21836 | 29935 ft | 533 kts | 297° |
| 2026-05-08 02:09 | 15.59613 | 104.14985 | 29945 ft | 533 kts | 297° |
| 2026-05-08 02:10 | 15.62966 | 104.08115 | 29948 ft | 534 kts | 297° |
| 2026-05-08 02:10 | 15.66321 | 104.01234 | 29950 ft | 535 kts | 297° |
| 2026-05-08 02:11 | 15.69686 | 103.94326 | 29939 ft | 537 kts | 297° |
| 2026-05-08 02:11 | 15.73054 | 103.87405 | 29943 ft | 537 kts | 297° |
| 2026-05-08 02:12 | 15.76419 | 103.80484 | 29945 ft | 538 kts | 297° |
| 2026-05-08 02:12 | 15.79786 | 103.73550 | 29941 ft | 538 kts | 297° |
| 2026-05-08 02:13 | 15.83154 | 103.66611 | 29957 ft | 538 kts | 297° |
| 2026-05-08 02:13 | 15.86494 | 103.59719 | 29947 ft | 537 kts | 297° |
| 2026-05-08 02:14 | 15.89848 | 103.52794 | 29943 ft | 537 kts | 297° |
| 2026-05-08 02:14 | 15.93198 | 103.45868 | 29951 ft | 535 kts | 298° |
| 2026-05-08 02:15 | 15.96533 | 103.38967 | 29937 ft | 533 kts | 297° |
| 2026-05-08 02:15 | 15.99857 | 103.32081 | 29946 ft | 532 kts | 297° |
| 2026-05-08 02:16 | 16.03168 | 103.25217 | 29945 ft | 531 kts | 297° |
| 2026-05-08 02:16 | 16.06472 | 103.18360 | 29953 ft | 531 kts | 297° |
| 2026-05-08 02:17 | 16.09775 | 103.11498 | 29947 ft | 531 kts | 297° |
| 2026-05-08 02:17 | 16.13081 | 103.04625 | 29956 ft | 532 kts | 297° |
| 2026-05-08 02:18 | 16.16388 | 102.97742 | 29953 ft | 533 kts | 297° |
| 2026-05-08 02:18 | 16.19700 | 102.90841 | 29960 ft | 533 kts | 297° |
| 2026-05-08 02:19 | 16.23011 | 102.83934 | 29970 ft | 534 kts | 297° |
| 2026-05-08 02:19 | 16.26323 | 102.77018 | 29974 ft | 534 kts | 297° |
| 2026-05-08 02:20 | 16.29636 | 102.70094 | 29985 ft | 534 kts | 297° |
| 2026-05-08 02:20 | 16.32926 | 102.63211 | 29980 ft | 534 kts | 297° |
| 2026-05-08 02:21 | 16.36234 | 102.56284 | 29969 ft | 534 kts | 297° |
| 2026-05-08 02:21 | 16.39541 | 102.49350 | 29960 ft | 534 kts | 297° |
| 2026-05-08 02:22 | 16.42846 | 102.42414 | 29951 ft | 534 kts | 297° |
| 2026-05-08 02:22 | 16.46150 | 102.35474 | 29943 ft | 535 kts | 297° |
| 2026-05-08 02:23 | 16.49452 | 102.28529 | 29945 ft | 535 kts | 297° |
| 2026-05-08 02:23 | 16.52756 | 102.21574 | 29956 ft | 536 kts | 297° |
| 2026-05-08 02:24 | 16.56063 | 102.14602 | 29953 ft | 536 kts | 297° |
| 2026-05-08 02:24 | 16.59366 | 102.07635 | 29952 ft | 536 kts | 297° |
| 2026-05-08 02:25 | 16.62364 | 102.00515 | 29945 ft | 537 kts | 289° |
| 2026-05-08 02:25 | 16.64080 | 101.92962 | 29944 ft | 536 kts | 278° |
| 2026-05-08 02:26 | 16.64732 | 101.85235 | 29947 ft | 534 kts | 275° |
| 2026-05-08 02:26 | 16.65298 | 101.77512 | 29956 ft | 534 kts | 275° |
| 2026-05-08 02:27 | 16.65899 | 101.69851 | 29965 ft | 533 kts | 276° |
| 2026-05-08 02:27 | 16.66530 | 101.62155 | 29946 ft | 531 kts | 276° |
| 2026-05-08 02:28 | 16.67160 | 101.54503 | 29938 ft | 528 kts | 276° |
| 2026-05-08 02:28 | 16.67782 | 101.46892 | 29934 ft | 525 kts | 276° |
| 2026-05-08 02:29 | 16.68395 | 101.39317 | 29938 ft | 524 kts | 276° |
| 2026-05-08 02:29 | 16.69005 | 101.31733 | 29921 ft | 525 kts | 276° |
| 2026-05-08 02:30 | 16.69614 | 101.24145 | 29947 ft | 525 kts | 275° |
| 2026-05-08 02:30 | 16.70221 | 101.16554 | 29939 ft | 525 kts | 275° |
| 2026-05-08 02:31 | 16.70824 | 101.08962 | 29945 ft | 525 kts | 275° |
| 2026-05-08 02:31 | 16.71426 | 101.01352 | 29929 ft | 526 kts | 275° |
| 2026-05-08 02:32 | 16.72024 | 100.93749 | 29946 ft | 526 kts | 275° |
| 2026-05-08 02:32 | 16.72620 | 100.86149 | 29921 ft | 526 kts | 275° |
| 2026-05-08 02:33 | 16.73214 | 100.78533 | 29918 ft | 526 kts | 275° |
| 2026-05-08 02:33 | 16.73804 | 100.70922 | 29914 ft | 526 kts | 275° |
| 2026-05-08 02:34 | 16.74387 | 100.63368 | 29924 ft | 526 kts | 275° |
| 2026-05-08 02:34 | 16.74972 | 100.55770 | 29902 ft | 526 kts | 275° |
| 2026-05-08 02:35 | 16.75556 | 100.48143 | 29917 ft | 528 kts | 275° |
| 2026-05-08 02:35 | 16.76139 | 100.40481 | 29905 ft | 530 kts | 275° |
| 2026-05-08 02:36 | 16.76722 | 100.32793 | 29907 ft | 532 kts | 275° |
| 2026-05-08 02:36 | 16.77250 | 100.25090 | 29938 ft | 533 kts | 274° |
| 2026-05-08 02:37 | 16.77524 | 100.17359 | 29942 ft | 534 kts | 272° |
| 2026-05-08 02:37 | 16.77747 | 100.09616 | 29935 ft | 534 kts | 272° |
| 2026-05-08 02:38 | 16.78004 | 100.01873 | 29911 ft | 534 kts | 272° |
| 2026-05-08 02:38 | 16.78285 | 99.94131 | 29916 ft | 534 kts | 273° |
| 2026-05-08 02:39 | 16.78568 | 99.86392 | 29913 ft | 533 kts | 272° |
| 2026-05-08 02:39 | 16.78843 | 99.78705 | 29908 ft | 533 kts | 272° |
| 2026-05-08 02:40 | 16.79115 | 99.70981 | 29912 ft | 533 kts | 272° |
| 2026-05-08 02:40 | 16.79385 | 99.63209 | 29918 ft | 532 kts | 272° |
| 2026-05-08 02:41 | 16.79648 | 99.55549 | 29916 ft | 532 kts | 272° |
| 2026-05-08 02:41 | 16.79911 | 99.47831 | 29923 ft | 532 kts | 272° |
| 2026-05-08 02:42 | 16.80171 | 99.40112 | 29933 ft | 532 kts | 272° |
| 2026-05-08 02:42 | 16.80428 | 99.32388 | 29932 ft | 533 kts | 272° |
| 2026-05-08 02:43 | 16.80683 | 99.24656 | 29933 ft | 533 kts | 272° |
| 2026-05-08 02:43 | 16.80934 | 99.16924 | 29952 ft | 533 kts | 272° |
| 2026-05-08 02:44 | 16.81183 | 99.09194 | 29951 ft | 533 kts | 272° |
| 2026-05-08 02:44 | 16.81428 | 99.01464 | 29949 ft | 533 kts | 272° |
| 2026-05-08 02:45 | 16.81672 | 98.93728 | 29957 ft | 533 kts | 272° |
| 2026-05-08 02:45 | 16.81912 | 98.85999 | 29967 ft | 533 kts | 272° |
| 2026-05-08 02:46 | 16.82109 | 98.79573 | 29956 ft | 533 kts | 272° |
| 2026-05-08 02:46 | 16.82344 | 98.71843 | 29968 ft | 533 kts | 272° |
| 2026-05-08 02:47 | 16.82576 | 98.64117 | 29957 ft | 532 kts | 271° |
| 2026-05-08 02:47 | 16.82804 | 98.56390 | 29970 ft | 532 kts | 271° |
| 2026-05-08 02:48 | 16.83424 | 98.48695 | 29965 ft | 532 kts | 279° |
| 2026-05-08 02:48 | 16.85254 | 98.41213 | 29962 ft | 532 kts | 287° |
| 2026-05-08 02:49 | 16.87397 | 98.33814 | 29928 ft | 532 kts | 286° |
| 2026-05-08 02:49 | 16.89494 | 98.26396 | 29953 ft | 533 kts | 285° |
| 2026-05-08 02:50 | 16.91538 | 98.19015 | 29930 ft | 533 kts | 285° |
| 2026-05-08 02:50 | 16.93591 | 98.11581 | 29933 ft | 533 kts | 285° |
| 2026-05-08 02:51 | 16.95645 | 98.04150 | 29920 ft | 532 kts | 285° |
| 2026-05-08 02:51 | 16.97694 | 97.96732 | 29919 ft | 532 kts | 285° |
| 2026-05-08 02:52 | 16.99744 | 97.89297 | 29925 ft | 533 kts | 285° |
| 2026-05-08 02:52 | 17.01672 | 97.81821 | 29915 ft | 534 kts | 283° |
| 2026-05-08 02:53 | 17.03405 | 97.74275 | 29898 ft | 534 kts | 282° |
| 2026-05-08 02:53 | 17.05136 | 97.66716 | 29914 ft | 535 kts | 283° |
| 2026-05-08 02:54 | 17.06903 | 97.59155 | 29919 ft | 535 kts | 283° |
| 2026-05-08 02:54 | 17.08682 | 97.51599 | 29915 ft | 535 kts | 283° |
| 2026-05-08 02:55 | 17.11345 | 97.40263 | 29911 ft | 535 kts | 283° |
| 2026-05-08 02:56 | 17.13115 | 97.32703 | 29912 ft | 535 kts | 283° |
| 2026-05-08 02:56 | 17.14869 | 97.25189 | 30034 ft | 535 kts | 283° |
| 2026-05-08 02:56 | 17.15750 | 97.21411 | 30153 ft | 534 kts | 283° |
| 2026-05-08 02:57 | 17.16627 | 97.17652 | 30284 ft | 532 kts | 283° |
| 2026-05-08 02:57 | 17.17501 | 97.13896 | 30401 ft | 531 kts | 283° |
| 2026-05-08 02:57 | 17.18375 | 97.10141 | 30488 ft | 531 kts | 283° |
| 2026-05-08 02:58 | 17.20115 | 97.02648 | 30668 ft | 530 kts | 283° |
| 2026-05-08 02:58 | 17.21849 | 96.95172 | 30885 ft | 528 kts | 283° |
| 2026-05-08 02:58 | 17.22714 | 96.91436 | 31005 ft | 527 kts | 283° |
| 2026-05-08 02:59 | 17.23574 | 96.87722 | 31131 ft | 526 kts | 283° |
| 2026-05-08 02:59 | 17.24433 | 96.84008 | 31244 ft | 525 kts | 282° |
| 2026-05-08 02:59 | 17.25288 | 96.80305 | 31402 ft | 523 kts | 283° |
| 2026-05-08 02:59 | 17.26141 | 96.76611 | 31563 ft | 521 kts | 282° |
| 2026-05-08 03:00 | 17.26987 | 96.72939 | 31753 ft | 518 kts | 282° |
| 2026-05-08 03:00 | 17.28669 | 96.65636 | 31864 ft | 515 kts | 283° |
| 2026-05-08 03:01 | 17.30344 | 96.58356 | 31891 ft | 514 kts | 283° |
| 2026-05-08 03:01 | 17.32850 | 96.51354 | 31897 ft | 515 kts | 296° |
| 2026-05-08 03:02 | 17.36676 | 96.45015 | 31896 ft | 517 kts | 306° |
| 2026-05-08 03:02 | 17.41065 | 96.39050 | 31898 ft | 517 kts | 306° |
| 2026-05-08 03:03 | 17.45457 | 96.33075 | 31896 ft | 518 kts | 306° |
| 2026-05-08 03:03 | 17.49819 | 96.27059 | 31897 ft | 518 kts | 306° |
| 2026-05-08 03:04 | 17.54168 | 96.21017 | 31897 ft | 519 kts | 306° |
| 2026-05-08 03:04 | 17.58484 | 96.15014 | 31899 ft | 519 kts | 306° |
| 2026-05-08 03:05 | 17.62831 | 96.08965 | 31894 ft | 520 kts | 306° |
| 2026-05-08 03:05 | 17.67181 | 96.02912 | 31906 ft | 519 kts | 305° |
| 2026-05-08 03:06 | 17.71522 | 95.96865 | 31890 ft | 518 kts | 305° |
| 2026-05-08 03:06 | 17.75853 | 95.90826 | 31894 ft | 517 kts | 305° |
| 2026-05-08 03:07 | 17.80174 | 95.84795 | 31893 ft | 516 kts | 305° |
| 2026-05-08 03:07 | 17.84490 | 95.78764 | 31892 ft | 516 kts | 305° |
| 2026-05-08 03:08 | 17.88799 | 95.72739 | 31898 ft | 516 kts | 305° |
| 2026-05-08 03:08 | 17.93105 | 95.66713 | 31895 ft | 516 kts | 304° |
| 2026-05-08 03:09 | 17.97410 | 95.60682 | 31893 ft | 516 kts | 304° |
| 2026-05-08 03:09 | 18.01693 | 95.54678 | 31897 ft | 517 kts | 304° |
| 2026-05-08 03:10 | 18.05995 | 95.48640 | 31894 ft | 517 kts | 304° |
| 2026-05-08 03:10 | 18.10300 | 95.42591 | 31883 ft | 516 kts | 304° |
| 2026-05-08 03:11 | 18.14600 | 95.36546 | 31892 ft | 516 kts | 304° |
| 2026-05-08 03:11 | 18.18896 | 95.30499 | 31899 ft | 516 kts | 304° |
| 2026-05-08 03:12 | 18.23195 | 95.24443 | 31896 ft | 516 kts | 304° |
| 2026-05-08 03:12 | 18.27488 | 95.18388 | 31897 ft | 516 kts | 304° |
| 2026-05-08 03:13 | 18.31758 | 95.12311 | 31906 ft | 516 kts | 302° |
| 2026-05-08 03:13 | 18.35842 | 95.06103 | 31906 ft | 516 kts | 301° |
| 2026-05-08 03:14 | 18.39888 | 94.99863 | 31917 ft | 515 kts | 301° |
| 2026-05-08 03:14 | 18.43956 | 94.93649 | 31915 ft | 515 kts | 302° |
| 2026-05-08 03:15 | 18.48036 | 94.87442 | 31922 ft | 515 kts | 302° |
| 2026-05-08 03:15 | 18.52077 | 94.81288 | 31906 ft | 514 kts | 301° |
| 2026-05-08 03:16 | 18.56139 | 94.75090 | 31911 ft | 514 kts | 301° |
| 2026-05-08 03:16 | 18.60236 | 94.68916 | 31915 ft | 514 kts | 303° |
| 2026-05-08 03:17 | 18.64449 | 94.62819 | 31914 ft | 515 kts | 303° |
| 2026-05-08 03:17 | 18.68682 | 94.56730 | 31912 ft | 514 kts | 303° |
| 2026-05-08 03:18 | 18.72891 | 94.50631 | 31910 ft | 515 kts | 303° |
| 2026-05-08 03:18 | 18.77093 | 94.44512 | 31908 ft | 515 kts | 303° |
| 2026-05-08 03:19 | 18.81293 | 94.38387 | 31898 ft | 515 kts | 303° |
| 2026-05-08 03:19 | 18.85495 | 94.32255 | 31900 ft | 515 kts | 303° |
| 2026-05-08 03:20 | 18.89696 | 94.26119 | 31893 ft | 516 kts | 303° |
| 2026-05-08 03:20 | 18.93898 | 94.19979 | 31887 ft | 516 kts | 303° |
| 2026-05-08 03:21 | 18.98095 | 94.13833 | 31890 ft | 516 kts | 302° |
| 2026-05-08 03:21 | 19.02271 | 94.07714 | 31891 ft | 516 kts | 302° |
| 2026-05-08 03:22 | 19.06473 | 94.01554 | 31890 ft | 517 kts | 302° |
| 2026-05-08 03:22 | 19.10672 | 93.95393 | 31891 ft | 516 kts | 302° |
| 2026-05-08 03:23 | 19.14867 | 93.89229 | 31886 ft | 516 kts | 302° |
| 2026-05-08 03:23 | 19.19061 | 93.83062 | 31890 ft | 516 kts | 302° |
| 2026-05-08 03:24 | 19.23248 | 93.76898 | 31889 ft | 516 kts | 302° |
| 2026-05-08 03:24 | 19.27436 | 93.70726 | 31886 ft | 515 kts | 302° |
| 2026-05-08 03:25 | 19.31609 | 93.64570 | 31887 ft | 515 kts | 302° |
| 2026-05-08 03:25 | 19.35758 | 93.58444 | 31891 ft | 514 kts | 302° |
| 2026-05-08 03:26 | 19.39923 | 93.52289 | 31883 ft | 514 kts | 302° |
| 2026-05-08 03:26 | 19.44088 | 93.46127 | 31894 ft | 514 kts | 302° |
| 2026-05-08 03:27 | 19.48248 | 93.39966 | 31885 ft | 513 kts | 301° |
| 2026-05-08 03:27 | 19.52392 | 93.33821 | 31890 ft | 512 kts | 301° |
| 2026-05-08 03:28 | 19.56534 | 93.27675 | 31886 ft | 512 kts | 301° |
| 2026-05-08 03:28 | 19.60666 | 93.21536 | 31889 ft | 511 kts | 301° |
| 2026-05-08 03:29 | 19.64797 | 93.15392 | 31890 ft | 511 kts | 301° |
| 2026-05-08 03:29 | 19.68924 | 93.09248 | 31891 ft | 512 kts | 301° |
| 2026-05-08 03:30 | 19.75116 | 93.00020 | 31893 ft | 512 kts | 301° |
| 2026-05-08 03:31 | 19.83356 | 92.87717 | 31885 ft | 511 kts | 301° |
| 2026-05-08 03:32 | 19.89523 | 92.78492 | 31893 ft | 510 kts | 301° |
| 2026-05-08 03:32 | 19.93626 | 92.72346 | 31891 ft | 509 kts | 301° |
| 2026-05-08 03:33 | 19.97694 | 92.66246 | 31893 ft | 509 kts | 301° |
| 2026-05-08 03:33 | 20.01788 | 92.60101 | 31886 ft | 509 kts | 301° |
| 2026-05-08 03:34 | 20.05878 | 92.53956 | 31892 ft | 509 kts | 301° |
| 2026-05-08 03:34 | 20.09965 | 92.47809 | 31891 ft | 509 kts | 301° |
| 2026-05-08 03:35 | 20.14052 | 92.41656 | 31905 ft | 509 kts | 301° |
| 2026-05-08 03:35 | 20.18130 | 92.35509 | 31896 ft | 508 kts | 301° |
| 2026-05-08 03:36 | 20.21519 | 92.30397 | 31886 ft | 508 kts | 301° |
| 2026-05-08 03:36 | 20.25588 | 92.24252 | 31897 ft | 508 kts | 301° |
| 2026-05-08 03:37 | 20.29655 | 92.18103 | 31891 ft | 508 kts | 301° |
| 2026-05-08 03:37 | 20.33718 | 92.11954 | 31892 ft | 508 kts | 301° |
| 2026-05-08 03:38 | 20.37781 | 92.05798 | 31896 ft | 508 kts | 301° |
| 2026-05-08 03:38 | 20.41843 | 91.99638 | 31893 ft | 508 kts | 300° |
| 2026-05-08 03:39 | 20.45869 | 91.93460 | 31893 ft | 507 kts | 300° |
| 2026-05-08 03:39 | 20.49870 | 91.87261 | 31908 ft | 507 kts | 300° |
| 2026-05-08 03:40 | 20.53868 | 91.81061 | 31900 ft | 507 kts | 300° |
| 2026-05-08 03:40 | 20.57865 | 91.74868 | 31895 ft | 507 kts | 300° |
| 2026-05-08 03:41 | 20.61858 | 91.68677 | 31894 ft | 506 kts | 300° |
| 2026-05-08 03:41 | 20.65850 | 91.62484 | 31896 ft | 506 kts | 300° |
| 2026-05-08 03:42 | 20.69808 | 91.56334 | 31901 ft | 506 kts | 300° |
| 2026-05-08 03:42 | 20.73789 | 91.50143 | 31901 ft | 505 kts | 300° |
| 2026-05-08 03:43 | 20.77767 | 91.43948 | 31899 ft | 505 kts | 300° |
| 2026-05-08 03:43 | 20.81739 | 91.37758 | 31912 ft | 505 kts | 299° |
| 2026-05-08 03:44 | 20.85702 | 91.31574 | 31897 ft | 503 kts | 299° |
| 2026-05-08 03:44 | 20.89651 | 91.25406 | 31898 ft | 502 kts | 299° |
| 2026-05-08 03:45 | 20.93589 | 91.19247 | 31904 ft | 501 kts | 299° |
| 2026-05-08 03:45 | 20.97519 | 91.13094 | 31911 ft | 500 kts | 299° |
| 2026-05-08 03:46 | 21.01441 | 91.06946 | 31902 ft | 500 kts | 299° |
| 2026-05-08 03:46 | 21.05356 | 91.00803 | 31907 ft | 499 kts | 299° |
| 2026-05-08 03:47 | 21.09248 | 90.94690 | 31906 ft | 499 kts | 299° |
| 2026-05-08 03:47 | 21.13160 | 90.88538 | 31903 ft | 499 kts | 299° |
| 2026-05-08 03:48 | 21.17070 | 90.82384 | 31911 ft | 500 kts | 299° |
| 2026-05-08 03:48 | 21.20977 | 90.76227 | 31912 ft | 500 kts | 299° |
| 2026-05-08 03:49 | 21.24880 | 90.70068 | 31909 ft | 500 kts | 299° |
| 2026-05-08 03:49 | 21.28784 | 90.63903 | 31910 ft | 499 kts | 298° |
| 2026-05-08 03:50 | 21.32680 | 90.57741 | 31912 ft | 499 kts | 298° |
| 2026-05-08 03:50 | 21.36578 | 90.51575 | 31912 ft | 499 kts | 298° |
| 2026-05-08 03:51 | 21.40482 | 90.45405 | 31916 ft | 499 kts | 298° |
| 2026-05-08 03:51 | 21.44386 | 90.39227 | 31916 ft | 499 kts | 298° |
| 2026-05-08 03:52 | 21.48283 | 90.33052 | 31933 ft | 500 kts | 298° |
| 2026-05-08 03:52 | 21.52179 | 90.26871 | 31916 ft | 499 kts | 298° |
| 2026-05-08 03:53 | 21.56067 | 90.20694 | 31916 ft | 499 kts | 298° |
| 2026-05-08 03:53 | 21.59949 | 90.14521 | 31917 ft | 498 kts | 298° |
| 2026-05-08 03:54 | 21.63799 | 90.08391 | 31916 ft | 498 kts | 298° |
| 2026-05-08 03:54 | 21.67669 | 90.02223 | 31921 ft | 497 kts | 298° |
| 2026-05-08 03:55 | 21.71537 | 89.96050 | 31925 ft | 497 kts | 298° |
| 2026-05-08 03:55 | 21.75400 | 89.89879 | 31920 ft | 498 kts | 298° |
| 2026-05-08 03:56 | 21.79262 | 89.83702 | 31918 ft | 498 kts | 298° |
| 2026-05-08 03:56 | 21.83120 | 89.77525 | 31929 ft | 497 kts | 298° |
| 2026-05-08 03:57 | 21.86977 | 89.71343 | 31924 ft | 497 kts | 298° |
| 2026-05-08 03:57 | 21.90829 | 89.65160 | 31924 ft | 497 kts | 298° |
| 2026-05-08 03:58 | 21.94681 | 89.58972 | 31916 ft | 497 kts | 298° |
| 2026-05-08 03:58 | 21.98526 | 89.52788 | 31924 ft | 496 kts | 298° |
| 2026-05-08 03:59 | 22.02365 | 89.46607 | 31922 ft | 496 kts | 298° |
| 2026-05-08 03:59 | 22.06176 | 89.40462 | 31924 ft | 496 kts | 298° |
| 2026-05-08 04:00 | 22.10010 | 89.34273 | 31927 ft | 496 kts | 298° |
| 2026-05-08 04:00 | 22.13838 | 89.28088 | 31930 ft | 496 kts | 298° |
| 2026-05-08 04:01 | 22.17667 | 89.21893 | 31937 ft | 496 kts | 298° |
| 2026-05-08 04:01 | 22.21493 | 89.15696 | 31928 ft | 496 kts | 298° |
| 2026-05-08 04:02 | 22.25319 | 89.09491 | 31926 ft | 496 kts | 298° |
| 2026-05-08 04:02 | 22.29141 | 89.03286 | 31930 ft | 496 kts | 298° |
| 2026-05-08 04:03 | 22.33036 | 88.97123 | 31930 ft | 498 kts | 300° |
| 2026-05-08 04:03 | 22.39141 | 88.88040 | 31932 ft | 498 kts | 300° |
| 2026-05-08 04:04 | 22.43193 | 88.81970 | 31935 ft | 498 kts | 300° |
| 2026-05-08 04:04 | 22.47192 | 88.75926 | 31933 ft | 497 kts | 299° |
| 2026-05-08 04:05 | 22.51235 | 88.69801 | 31931 ft | 497 kts | 299° |
| 2026-05-08 04:05 | 22.55217 | 88.63765 | 31933 ft | 496 kts | 299° |
| 2026-05-08 04:06 | 22.59220 | 88.57692 | 31939 ft | 495 kts | 299° |
| 2026-05-08 04:06 | 22.63211 | 88.51630 | 31942 ft | 494 kts | 299° |
| 2026-05-08 04:07 | 22.67198 | 88.45566 | 31950 ft | 494 kts | 298° |
| 2026-05-08 04:07 | 22.70893 | 88.39352 | 31938 ft | 490 kts | 296° |
| 2026-05-08 04:08 | 22.74463 | 88.33064 | 31937 ft | 489 kts | 295° |
| 2026-05-08 04:08 | 22.78024 | 88.26792 | 31957 ft | 489 kts | 295° |
| 2026-05-08 04:09 | 22.81607 | 88.20507 | 31939 ft | 489 kts | 295° |
| 2026-05-08 04:09 | 22.85183 | 88.14242 | 31929 ft | 489 kts | 295° |
| 2026-05-08 04:10 | 22.88762 | 88.07968 | 31946 ft | 488 kts | 295° |
| 2026-05-08 04:10 | 22.92327 | 88.01706 | 31931 ft | 488 kts | 295° |
| 2026-05-08 04:11 | 22.95889 | 87.95442 | 31933 ft | 487 kts | 295° |
| 2026-05-08 04:11 | 22.99424 | 87.89218 | 31929 ft | 487 kts | 295° |
| 2026-05-08 04:12 | 23.02974 | 87.82959 | 31935 ft | 487 kts | 295° |
| 2026-05-08 04:12 | 23.06524 | 87.76692 | 31937 ft | 487 kts | 295° |
| 2026-05-08 04:13 | 23.10071 | 87.70424 | 31974 ft | 487 kts | 295° |
| 2026-05-08 04:13 | 23.13614 | 87.64156 | 31951 ft | 486 kts | 295° |
| 2026-05-08 04:14 | 23.17146 | 87.57899 | 31947 ft | 485 kts | 295° |
| 2026-05-08 04:14 | 23.20666 | 87.51657 | 31930 ft | 484 kts | 295° |
| 2026-05-08 04:15 | 23.24179 | 87.45416 | 31930 ft | 484 kts | 295° |
| 2026-05-08 04:15 | 23.27689 | 87.39174 | 31937 ft | 483 kts | 295° |
| 2026-05-08 04:16 | 23.31197 | 87.32928 | 31951 ft | 483 kts | 295° |
| 2026-05-08 04:16 | 23.34678 | 87.26723 | 31936 ft | 484 kts | 295° |
| 2026-05-08 04:17 | 23.38179 | 87.20475 | 31951 ft | 484 kts | 295° |
| 2026-05-08 04:17 | 23.41680 | 87.14219 | 31959 ft | 484 kts | 295° |
| 2026-05-08 04:18 | 23.45174 | 87.07965 | 31951 ft | 483 kts | 295° |
| 2026-05-08 04:18 | 23.48659 | 87.01726 | 31951 ft | 481 kts | 295° |
| 2026-05-08 04:19 | 23.52147 | 86.95504 | 31950 ft | 481 kts | 295° |
| 2026-05-08 04:19 | 23.55631 | 86.89290 | 31953 ft | 481 kts | 295° |
| 2026-05-08 04:20 | 23.59112 | 86.83071 | 31948 ft | 481 kts | 295° |
| 2026-05-08 04:20 | 23.62594 | 86.76845 | 31907 ft | 480 kts | 295° |
| 2026-05-08 04:21 | 23.66062 | 86.70630 | 31970 ft | 480 kts | 295° |
| 2026-05-08 04:21 | 23.69532 | 86.64393 | 31961 ft | 482 kts | 295° |
| 2026-05-08 04:22 | 23.73016 | 86.58135 | 31965 ft | 483 kts | 295° |
| 2026-05-08 04:22 | 23.76504 | 86.51863 | 31962 ft | 484 kts | 295° |
| 2026-05-08 04:23 | 23.79993 | 86.45580 | 31958 ft | 483 kts | 295° |
| 2026-05-08 04:23 | 23.83660 | 86.39410 | 31952 ft | 486 kts | 298° |
| 2026-05-08 04:24 | 23.87496 | 86.33382 | 31955 ft | 486 kts | 298° |
| 2026-05-08 04:24 | 23.91360 | 86.27320 | 31952 ft | 486 kts | 298° |
| 2026-05-08 04:25 | 23.95202 | 86.21251 | 31957 ft | 485 kts | 298° |
| 2026-05-08 04:25 | 23.98411 | 86.16159 | 31972 ft | 485 kts | 298° |
| 2026-05-08 04:26 | 24.02205 | 86.10125 | 31985 ft | 484 kts | 298° |
| 2026-05-08 04:26 | 24.06013 | 86.04068 | 31959 ft | 482 kts | 298° |
| 2026-05-08 04:27 | 24.09808 | 85.98023 | 31941 ft | 481 kts | 298° |
| 2026-05-08 04:27 | 24.13583 | 85.92003 | 31945 ft | 479 kts | 298° |
| 2026-05-08 04:28 | 24.17356 | 85.85977 | 31952 ft | 479 kts | 298° |
| 2026-05-08 04:28 | 24.21123 | 85.79953 | 31946 ft | 480 kts | 298° |
| 2026-05-08 04:29 | 24.24895 | 85.73916 | 31946 ft | 480 kts | 298° |
| 2026-05-08 04:29 | 24.28665 | 85.67874 | 31946 ft | 480 kts | 298° |
| 2026-05-08 04:30 | 24.32440 | 85.61816 | 31959 ft | 481 kts | 298° |
| 2026-05-08 04:30 | 24.36191 | 85.55790 | 31949 ft | 482 kts | 298° |
| 2026-05-08 04:31 | 24.39972 | 85.49708 | 31939 ft | 483 kts | 298° |
| 2026-05-08 04:31 | 24.43754 | 85.43617 | 31938 ft | 483 kts | 298° |
| 2026-05-08 04:32 | 24.47539 | 85.37515 | 31919 ft | 484 kts | 298° |
| 2026-05-08 04:32 | 24.51323 | 85.31405 | 31937 ft | 484 kts | 298° |
| 2026-05-08 04:33 | 24.55104 | 85.25293 | 31922 ft | 484 kts | 298° |
| 2026-05-08 04:33 | 24.58884 | 85.19174 | 31936 ft | 484 kts | 298° |
| 2026-05-08 04:34 | 24.62660 | 85.13053 | 31952 ft | 484 kts | 298° |
| 2026-05-08 04:34 | 24.66434 | 85.06930 | 31944 ft | 484 kts | 298° |
| 2026-05-08 04:35 | 24.70213 | 85.00789 | 31946 ft | 485 kts | 298° |
| 2026-05-08 04:35 | 24.73824 | 84.94555 | 31935 ft | 480 kts | 293° |
| 2026-05-08 04:36 | 24.76511 | 84.87900 | 31947 ft | 474 kts | 286° |
| 2026-05-08 04:36 | 24.78840 | 84.81103 | 31946 ft | 475 kts | 286° |
| 2026-05-08 04:37 | 24.81195 | 84.74309 | 31929 ft | 475 kts | 286° |
| 2026-05-08 04:37 | 24.83560 | 84.67521 | 31925 ft | 475 kts | 286° |
| 2026-05-08 04:38 | 24.85910 | 84.60777 | 31919 ft | 474 kts | 287° |
| 2026-05-08 04:38 | 24.88268 | 84.53998 | 31911 ft | 474 kts | 286° |
| 2026-05-08 04:39 | 24.90623 | 84.47213 | 31910 ft | 473 kts | 286° |
| 2026-05-08 04:39 | 24.92969 | 84.40440 | 31930 ft | 474 kts | 287° |
| 2026-05-08 04:40 | 24.95314 | 84.33658 | 31918 ft | 473 kts | 287° |
| 2026-05-08 04:40 | 24.97655 | 84.26878 | 31912 ft | 473 kts | 287° |
| 2026-05-08 04:41 | 24.99994 | 84.20093 | 31917 ft | 474 kts | 287° |
| 2026-05-08 04:41 | 25.02332 | 84.13298 | 31912 ft | 474 kts | 287° |
| 2026-05-08 04:42 | 25.04656 | 84.06534 | 31911 ft | 475 kts | 287° |
| 2026-05-08 04:42 | 25.06993 | 83.99718 | 31915 ft | 475 kts | 287° |
| 2026-05-08 04:43 | 25.09330 | 83.92891 | 31921 ft | 476 kts | 287° |
| 2026-05-08 04:43 | 25.11667 | 83.86055 | 31905 ft | 477 kts | 287° |
| 2026-05-08 04:44 | 25.14004 | 83.79204 | 31921 ft | 477 kts | 287° |
| 2026-05-08 04:44 | 25.16342 | 83.72340 | 31919 ft | 478 kts | 287° |
| 2026-05-08 04:45 | 25.18676 | 83.65477 | 31919 ft | 478 kts | 287° |
| 2026-05-08 04:45 | 25.20994 | 83.58645 | 31910 ft | 478 kts | 287° |
| 2026-05-08 04:46 | 25.23324 | 83.51767 | 31908 ft | 478 kts | 288° |
| 2026-05-08 04:46 | 25.25649 | 83.44893 | 31905 ft | 478 kts | 288° |
| 2026-05-08 04:47 | 25.27969 | 83.38023 | 31908 ft | 477 kts | 288° |
| 2026-05-08 04:47 | 25.30285 | 83.31153 | 31903 ft | 477 kts | 288° |
| 2026-05-08 04:48 | 25.32597 | 83.24281 | 31908 ft | 476 kts | 288° |
| 2026-05-08 04:48 | 25.34902 | 83.17416 | 31905 ft | 476 kts | 288° |
| 2026-05-08 04:49 | 25.37204 | 83.10549 | 31902 ft | 476 kts | 288° |
| 2026-05-08 04:49 | 25.39500 | 83.03689 | 31900 ft | 476 kts | 288° |
| 2026-05-08 04:50 | 25.41791 | 82.96832 | 31899 ft | 475 kts | 288° |
| 2026-05-08 04:50 | 25.44118 | 82.89985 | 31904 ft | 476 kts | 291° |
| 2026-05-08 04:51 | 25.47191 | 82.83519 | 31941 ft | 480 kts | 298° |
| 2026-05-08 04:51 | 25.51082 | 82.77473 | 31914 ft | 484 kts | 303° |
| 2026-05-08 04:52 | 25.55150 | 82.71536 | 31910 ft | 484 kts | 303° |
| 2026-05-08 04:52 | 25.59213 | 82.65572 | 31904 ft | 485 kts | 303° |
| 2026-05-08 04:53 | 25.63256 | 82.59593 | 31905 ft | 485 kts | 303° |
| 2026-05-08 04:53 | 25.67291 | 82.53602 | 31901 ft | 485 kts | 303° |
| 2026-05-08 04:54 | 25.71322 | 82.47609 | 31902 ft | 485 kts | 303° |
| 2026-05-08 04:54 | 25.75351 | 82.41613 | 31932 ft | 485 kts | 303° |
| 2026-05-08 04:55 | 25.79384 | 82.35602 | 31906 ft | 485 kts | 304° |
| 2026-05-08 04:55 | 25.83406 | 82.29604 | 31898 ft | 484 kts | 304° |
| 2026-05-08 04:56 | 25.87424 | 82.23602 | 31894 ft | 483 kts | 304° |
| 2026-05-08 04:56 | 25.91428 | 82.17613 | 31894 ft | 483 kts | 304° |
| 2026-05-08 04:57 | 25.95425 | 82.11627 | 31903 ft | 482 kts | 303° |
| 2026-05-08 04:57 | 25.99418 | 82.05638 | 31907 ft | 482 kts | 303° |
| 2026-05-08 04:58 | 26.03407 | 81.99649 | 31907 ft | 482 kts | 303° |
| 2026-05-08 04:58 | 26.07396 | 81.93650 | 31908 ft | 483 kts | 304° |
| 2026-05-08 04:59 | 26.11387 | 81.87643 | 31903 ft | 483 kts | 304° |
| 2026-05-08 04:59 | 26.15377 | 81.81627 | 31903 ft | 483 kts | 304° |
| 2026-05-08 05:00 | 26.19371 | 81.75600 | 31907 ft | 483 kts | 304° |
| 2026-05-08 05:00 | 26.23359 | 81.69572 | 31908 ft | 484 kts | 304° |
| 2026-05-08 05:01 | 26.27346 | 81.63537 | 31908 ft | 483 kts | 304° |
| 2026-05-08 05:01 | 26.31299 | 81.57548 | 31903 ft | 482 kts | 304° |
| 2026-05-08 05:02 | 26.35270 | 81.51521 | 31910 ft | 482 kts | 304° |
| 2026-05-08 05:02 | 26.39238 | 81.45493 | 31909 ft | 482 kts | 304° |
| 2026-05-08 05:03 | 26.43203 | 81.39460 | 31917 ft | 482 kts | 304° |
| 2026-05-08 05:03 | 26.47166 | 81.33423 | 31913 ft | 482 kts | 304° |
| 2026-05-08 05:04 | 26.51124 | 81.27385 | 31908 ft | 482 kts | 304° |
| 2026-05-08 05:04 | 26.55075 | 81.21350 | 31909 ft | 481 kts | 304° |
| 2026-05-08 05:05 | 26.59013 | 81.15327 | 31908 ft | 479 kts | 304° |
| 2026-05-08 05:05 | 26.62945 | 81.09304 | 31920 ft | 480 kts | 304° |
| 2026-05-08 05:06 | 26.66881 | 81.03267 | 31912 ft | 480 kts | 304° |
| 2026-05-08 05:06 | 26.70813 | 80.97228 | 31917 ft | 481 kts | 304° |
| 2026-05-08 05:07 | 26.74752 | 80.91171 | 31940 ft | 481 kts | 304° |
| 2026-05-08 05:07 | 26.78945 | 80.85330 | 31944 ft | 481 kts | 308° |
| 2026-05-08 05:08 | 26.83318 | 80.79661 | 31939 ft | 481 kts | 309° |
| 2026-05-08 05:08 | 26.87688 | 80.73982 | 31957 ft | 481 kts | 309° |
| 2026-05-08 05:09 | 26.92043 | 80.68285 | 31932 ft | 482 kts | 309° |
| 2026-05-08 05:09 | 26.96369 | 80.62607 | 31921 ft | 482 kts | 309° |
| 2026-05-08 05:10 | 27.02896 | 80.54021 | 31910 ft | 482 kts | 309° |
| 2026-05-08 05:11 | 27.07246 | 80.48293 | 31914 ft | 482 kts | 308° |
| 2026-05-08 05:11 | 27.11586 | 80.42571 | 31911 ft | 481 kts | 308° |
| 2026-05-08 05:12 | 27.15923 | 80.36844 | 31925 ft | 481 kts | 309° |
| 2026-05-08 05:12 | 27.20258 | 80.31112 | 31913 ft | 482 kts | 309° |
| 2026-05-08 05:13 | 27.24594 | 80.25372 | 31913 ft | 482 kts | 309° |
| 2026-05-08 05:13 | 27.28928 | 80.19626 | 31896 ft | 482 kts | 309° |
| 2026-05-08 05:14 | 27.33270 | 80.13863 | 31906 ft | 482 kts | 309° |
| 2026-05-08 05:14 | 27.37608 | 80.08098 | 31910 ft | 482 kts | 309° |
| 2026-05-08 05:15 | 27.41209 | 80.03306 | 31911 ft | 482 kts | 309° |
| 2026-05-08 05:15 | 27.45540 | 79.97534 | 31901 ft | 483 kts | 309° |
| 2026-05-08 05:16 | 27.49872 | 79.91754 | 31898 ft | 483 kts | 309° |
| 2026-05-08 05:16 | 27.54203 | 79.85969 | 31912 ft | 483 kts | 309° |
| 2026-05-08 05:17 | 27.58535 | 79.80173 | 31910 ft | 483 kts | 309° |
| 2026-05-08 05:17 | 27.62864 | 79.74373 | 31891 ft | 483 kts | 309° |
| 2026-05-08 05:18 | 27.67101 | 79.68570 | 31879 ft | 482 kts | 305° |
| 2026-05-08 05:18 | 27.70627 | 79.62102 | 31897 ft | 481 kts | 297° |
| 2026-05-08 05:19 | 27.73293 | 79.55230 | 31895 ft | 482 kts | 292° |
| 2026-05-08 05:19 | 27.75827 | 79.48216 | 31898 ft | 482 kts | 292° |
| 2026-05-08 05:20 | 27.78371 | 79.41209 | 31903 ft | 483 kts | 292° |
| 2026-05-08 05:20 | 27.80932 | 79.34199 | 31889 ft | 483 kts | 292° |
| 2026-05-08 05:21 | 27.83498 | 79.27183 | 31889 ft | 483 kts | 292° |
| 2026-05-08 05:21 | 27.86059 | 79.20169 | 31900 ft | 483 kts | 292° |
| 2026-05-08 05:22 | 27.88615 | 79.13153 | 31903 ft | 483 kts | 292° |
| 2026-05-08 05:22 | 27.91167 | 79.06134 | 31901 ft | 482 kts | 292° |
| 2026-05-08 05:23 | 27.93711 | 78.99122 | 31893 ft | 482 kts | 292° |
| 2026-05-08 05:23 | 27.96249 | 78.92115 | 31895 ft | 481 kts | 292° |
| 2026-05-08 05:24 | 27.98784 | 78.85103 | 31899 ft | 481 kts | 292° |
| 2026-05-08 05:24 | 28.01313 | 78.78095 | 31894 ft | 481 kts | 292° |
| 2026-05-08 05:25 | 28.03836 | 78.71089 | 31897 ft | 481 kts | 292° |
| 2026-05-08 05:25 | 28.06336 | 78.64134 | 31894 ft | 480 kts | 292° |
| 2026-05-08 05:26 | 28.08849 | 78.57132 | 31902 ft | 480 kts | 292° |
| 2026-05-08 05:26 | 28.11355 | 78.50133 | 31901 ft | 480 kts | 292° |
| 2026-05-08 05:27 | 28.13860 | 78.43126 | 31902 ft | 479 kts | 292° |
| 2026-05-08 05:27 | 28.16359 | 78.36123 | 31900 ft | 479 kts | 292° |
| 2026-05-08 05:28 | 28.18856 | 78.29110 | 31900 ft | 480 kts | 292° |
| 2026-05-08 05:28 | 28.21355 | 78.22079 | 31909 ft | 481 kts | 292° |
| 2026-05-08 05:29 | 28.23850 | 78.15045 | 31911 ft | 481 kts | 292° |
| 2026-05-08 05:29 | 28.26346 | 78.07996 | 31917 ft | 481 kts | 292° |
| 2026-05-08 05:30 | 28.28837 | 78.00946 | 31917 ft | 482 kts | 292° |
| 2026-05-08 05:30 | 28.31328 | 77.93885 | 31906 ft | 482 kts | 292° |
| 2026-05-08 05:31 | 28.33810 | 77.86834 | 31911 ft | 481 kts | 292° |
| 2026-05-08 05:31 | 28.36272 | 77.79825 | 31909 ft | 481 kts | 292° |
| 2026-05-08 05:32 | 28.38750 | 77.72760 | 31909 ft | 481 kts | 292° |
| 2026-05-08 05:32 | 28.40960 | 77.65590 | 31898 ft | 481 kts | 289° |
| 2026-05-08 05:33 | 28.42985 | 77.58336 | 31902 ft | 482 kts | 289° |
| 2026-05-08 05:33 | 28.45015 | 77.51078 | 31909 ft | 482 kts | 289° |
| 2026-05-08 05:34 | 28.47058 | 77.43819 | 31905 ft | 482 kts | 289° |
| 2026-05-08 05:34 | 28.49101 | 77.36561 | 31905 ft | 482 kts | 289° |
| 2026-05-08 05:35 | 28.51140 | 77.29298 | 31905 ft | 482 kts | 289° |
| 2026-05-08 05:35 | 28.53175 | 77.22032 | 31890 ft | 482 kts | 289° |
| 2026-05-08 05:36 | 28.55203 | 77.14772 | 31910 ft | 482 kts | 289° |
| 2026-05-08 05:36 | 28.57474 | 77.07616 | 31904 ft | 480 kts | 295° |
| 2026-05-08 05:37 | 28.60547 | 77.00879 | 31913 ft | 479 kts | 298° |
| 2026-05-08 05:37 | 28.63655 | 76.94164 | 31913 ft | 480 kts | 298° |
| 2026-05-08 05:38 | 28.66742 | 76.87421 | 31895 ft | 480 kts | 298° |
| 2026-05-08 05:38 | 28.69795 | 76.80712 | 31893 ft | 480 kts | 298° |
| 2026-05-08 05:39 | 28.72866 | 76.73946 | 31894 ft | 481 kts | 298° |
| 2026-05-08 05:39 | 28.75933 | 76.67182 | 31894 ft | 481 kts | 298° |
| 2026-05-08 05:40 | 28.79003 | 76.60402 | 31890 ft | 481 kts | 298° |
| 2026-05-08 05:40 | 28.82068 | 76.53620 | 31890 ft | 481 kts | 297° |
| 2026-05-08 05:41 | 28.85130 | 76.46835 | 31877 ft | 481 kts | 298° |
| 2026-05-08 05:41 | 28.88188 | 76.40046 | 31888 ft | 482 kts | 298° |
| 2026-05-08 05:42 | 28.91250 | 76.33236 | 31887 ft | 482 kts | 297° |
| 2026-05-08 05:42 | 28.94315 | 76.26409 | 31886 ft | 483 kts | 297° |
| 2026-05-08 05:43 | 28.97376 | 76.19580 | 31880 ft | 484 kts | 297° |
| 2026-05-08 05:43 | 29.00437 | 76.12737 | 31868 ft | 484 kts | 298° |
| 2026-05-08 05:44 | 29.03490 | 76.05901 | 31873 ft | 483 kts | 298° |
| 2026-05-08 05:44 | 29.06537 | 75.99067 | 31877 ft | 482 kts | 297° |
| 2026-05-08 05:45 | 29.09575 | 75.92240 | 31886 ft | 482 kts | 297° |
| 2026-05-08 05:45 | 29.12614 | 75.85401 | 31878 ft | 483 kts | 297° |
| 2026-05-08 05:46 | 29.15653 | 75.78550 | 31877 ft | 483 kts | 297° |
| 2026-05-08 05:46 | 29.18667 | 75.71741 | 31873 ft | 482 kts | 298° |
| 2026-05-08 05:47 | 29.21693 | 75.64894 | 31874 ft | 482 kts | 297° |
| 2026-05-08 05:47 | 29.24714 | 75.58047 | 31867 ft | 482 kts | 297° |
| 2026-05-08 05:48 | 29.27733 | 75.51194 | 31884 ft | 483 kts | 297° |
| 2026-05-08 05:48 | 29.29259 | 75.47767 | 32017 ft | 483 kts | 298° |
| 2026-05-08 05:48 | 29.30821 | 75.44377 | 32259 ft | 481 kts | 298° |
| 2026-05-08 05:48 | 29.32414 | 75.41016 | 32453 ft | 479 kts | 301° |
| 2026-05-08 05:49 | 29.34186 | 75.37798 | 32745 ft | 475 kts | 306° |
| 2026-05-08 05:49 | 29.36148 | 75.34774 | 33055 ft | 471 kts | 307° |
| 2026-05-08 05:49 | 29.38114 | 75.31781 | 33350 ft | 468 kts | 307° |
| 2026-05-08 05:49 | 29.40064 | 75.28801 | 33664 ft | 465 kts | 307° |
| 2026-05-08 05:50 | 29.41993 | 75.25842 | 33817 ft | 463 kts | 307° |
| 2026-05-08 05:50 | 29.45814 | 75.19943 | 33872 ft | 459 kts | 307° |
| 2026-05-08 05:51 | 29.49604 | 75.14065 | 33873 ft | 458 kts | 306° |
| 2026-05-08 05:51 | 29.53387 | 75.08187 | 33875 ft | 458 kts | 306° |
| 2026-05-08 05:52 | 29.57174 | 75.02296 | 33875 ft | 458 kts | 307° |
| 2026-05-08 05:52 | 29.60954 | 74.96408 | 33873 ft | 458 kts | 307° |
| 2026-05-08 05:53 | 29.64730 | 74.90517 | 33876 ft | 458 kts | 307° |
| 2026-05-08 05:53 | 29.68484 | 74.84652 | 33876 ft | 458 kts | 307° |
| 2026-05-08 05:54 | 29.72257 | 74.78750 | 33868 ft | 458 kts | 307° |
| 2026-05-08 05:54 | 29.76025 | 74.72847 | 33874 ft | 458 kts | 307° |
| 2026-05-08 05:55 | 29.79794 | 74.66934 | 33881 ft | 458 kts | 307° |
| 2026-05-08 05:55 | 29.83565 | 74.61009 | 33870 ft | 459 kts | 307° |
| 2026-05-08 05:56 | 29.87342 | 74.55066 | 33867 ft | 460 kts | 307° |
| 2026-05-08 05:56 | 29.91118 | 74.49115 | 33866 ft | 460 kts | 307° |
| 2026-05-08 05:57 | 29.94898 | 74.43150 | 33872 ft | 461 kts | 306° |
| 2026-05-08 05:57 | 29.98650 | 74.37220 | 33871 ft | 461 kts | 306° |
| 2026-05-08 05:58 | 30.02421 | 74.31251 | 33879 ft | 460 kts | 307° |
| 2026-05-08 05:58 | 30.06184 | 74.25286 | 33854 ft | 460 kts | 307° |
| 2026-05-08 05:59 | 30.09941 | 74.19321 | 33869 ft | 459 kts | 307° |
| 2026-05-08 05:59 | 30.13695 | 74.13354 | 33869 ft | 459 kts | 307° |
| 2026-05-08 06:00 | 30.17443 | 74.07385 | 33862 ft | 459 kts | 306° |
| 2026-05-08 06:00 | 30.21192 | 74.01406 | 33857 ft | 459 kts | 306° |
| 2026-05-08 06:01 | 30.24932 | 73.95435 | 33850 ft | 458 kts | 306° |
| 2026-05-08 06:01 | 30.28667 | 73.89472 | 33851 ft | 457 kts | 306° |
| 2026-05-08 06:02 | 30.32395 | 73.83514 | 33854 ft | 457 kts | 306° |
| 2026-05-08 06:02 | 30.36114 | 73.77560 | 33848 ft | 456 kts | 306° |
| 2026-05-08 06:03 | 30.39828 | 73.71604 | 33852 ft | 456 kts | 306° |
| 2026-05-08 06:03 | 30.43543 | 73.65637 | 33852 ft | 456 kts | 306° |
| 2026-05-08 06:04 | 30.46621 | 73.60686 | 33842 ft | 455 kts | 306° |
| 2026-05-08 06:04 | 30.50321 | 73.54727 | 33852 ft | 455 kts | 306° |
| 2026-05-08 06:05 | 30.54016 | 73.48767 | 33845 ft | 455 kts | 306° |
| 2026-05-08 06:05 | 30.57707 | 73.42804 | 33853 ft | 455 kts | 306° |
| 2026-05-08 06:06 | 30.61395 | 73.36837 | 33852 ft | 455 kts | 306° |
| 2026-05-08 06:06 | 30.65089 | 73.30851 | 33849 ft | 455 kts | 306° |
| 2026-05-08 06:07 | 30.68771 | 73.24878 | 33843 ft | 454 kts | 306° |
| 2026-05-08 06:07 | 30.72451 | 73.18912 | 33852 ft | 454 kts | 306° |
| 2026-05-08 06:08 | 30.76129 | 73.12943 | 33849 ft | 454 kts | 306° |
| 2026-05-08 06:08 | 30.79802 | 73.06973 | 33853 ft | 454 kts | 306° |
| 2026-05-08 06:09 | 30.83452 | 73.01030 | 33854 ft | 454 kts | 306° |
| 2026-05-08 06:09 | 30.87119 | 72.95049 | 33830 ft | 454 kts | 306° |
| 2026-05-08 06:10 | 30.90785 | 72.89060 | 33846 ft | 454 kts | 306° |
| 2026-05-08 06:10 | 30.94443 | 72.83076 | 33857 ft | 454 kts | 306° |
| 2026-05-08 06:11 | 30.98105 | 72.77076 | 33853 ft | 454 kts | 306° |
| 2026-05-08 06:11 | 31.01763 | 72.71072 | 33853 ft | 454 kts | 306° |
| 2026-05-08 06:12 | 31.05416 | 72.65069 | 33850 ft | 454 kts | 306° |
| 2026-05-08 06:12 | 31.09067 | 72.59060 | 33834 ft | 454 kts | 306° |
| 2026-05-08 06:13 | 31.12710 | 72.53054 | 33845 ft | 453 kts | 306° |
| 2026-05-08 06:13 | 31.16346 | 72.47051 | 33863 ft | 453 kts | 306° |
| 2026-05-08 06:14 | 31.19981 | 72.41038 | 33858 ft | 453 kts | 306° |
| 2026-05-08 06:14 | 31.23620 | 72.35012 | 33855 ft | 454 kts | 306° |
| 2026-05-08 06:15 | 31.27167 | 72.28961 | 33851 ft | 455 kts | 302° |
| 2026-05-08 06:15 | 31.30194 | 72.22468 | 33837 ft | 455 kts | 300° |
| 2026-05-08 06:16 | 31.33186 | 72.15963 | 33854 ft | 454 kts | 300° |
| 2026-05-08 06:16 | 31.36191 | 72.09464 | 33874 ft | 454 kts | 300° |
| 2026-05-08 06:17 | 31.40707 | 71.99702 | 33863 ft | 455 kts | 300° |
| 2026-05-08 06:17 | 31.43712 | 71.93191 | 33862 ft | 455 kts | 300° |
| 2026-05-08 06:18 | 31.46714 | 71.86675 | 33855 ft | 454 kts | 300° |
| 2026-05-08 06:18 | 31.49705 | 71.80169 | 33855 ft | 454 kts | 300° |
| 2026-05-08 06:19 | 31.52697 | 71.73653 | 33862 ft | 454 kts | 300° |
| 2026-05-08 06:19 | 31.55684 | 71.67134 | 33871 ft | 454 kts | 300° |
| 2026-05-08 06:20 | 31.58652 | 71.60648 | 33863 ft | 455 kts | 300° |
| 2026-05-08 06:20 | 31.61656 | 71.54063 | 33841 ft | 455 kts | 300° |
| 2026-05-08 06:21 | 31.64613 | 71.47563 | 33850 ft | 455 kts | 300° |
| 2026-05-08 06:21 | 31.67588 | 71.41012 | 33862 ft | 455 kts | 300° |
| 2026-05-08 06:22 | 31.70580 | 71.34411 | 33849 ft | 455 kts | 300° |
| 2026-05-08 06:22 | 31.73529 | 71.27895 | 33860 ft | 455 kts | 300° |
| 2026-05-08 06:23 | 31.76495 | 71.21330 | 33856 ft | 455 kts | 300° |
| 2026-05-08 06:23 | 31.79465 | 71.14744 | 33852 ft | 455 kts | 300° |
| 2026-05-08 06:24 | 31.82427 | 71.08163 | 33863 ft | 456 kts | 300° |
| 2026-05-08 06:24 | 31.85389 | 71.01570 | 33856 ft | 456 kts | 300° |
| 2026-05-08 06:25 | 31.88346 | 70.94979 | 33857 ft | 456 kts | 300° |
| 2026-05-08 06:25 | 31.91406 | 70.88453 | 33856 ft | 454 kts | 304° |
| 2026-05-08 06:26 | 31.95163 | 70.82496 | 33869 ft | 453 kts | 309° |
| 2026-05-08 06:26 | 31.99042 | 70.76647 | 33856 ft | 453 kts | 309° |
| 2026-05-08 06:27 | 32.02903 | 70.70768 | 33853 ft | 453 kts | 309° |
| 2026-05-08 06:27 | 32.06754 | 70.64879 | 33856 ft | 454 kts | 309° |
| 2026-05-08 06:28 | 32.10583 | 70.59012 | 33856 ft | 454 kts | 309° |
| 2026-05-08 06:28 | 32.14432 | 70.53107 | 33847 ft | 454 kts | 309° |
| 2026-05-08 06:29 | 32.18278 | 70.47199 | 33871 ft | 454 kts | 309° |
| 2026-05-08 06:29 | 32.22126 | 70.41279 | 33866 ft | 454 kts | 309° |
| 2026-05-08 06:30 | 32.25963 | 70.35365 | 33866 ft | 454 kts | 309° |
| 2026-05-08 06:30 | 32.29797 | 70.29446 | 33875 ft | 453 kts | 309° |
| 2026-05-08 06:31 | 32.33629 | 70.23520 | 33889 ft | 453 kts | 309° |
| 2026-05-08 06:31 | 32.37456 | 70.17601 | 33901 ft | 452 kts | 309° |
| 2026-05-08 06:32 | 32.41317 | 70.11791 | 33919 ft | 452 kts | 310° |
| 2026-05-08 06:32 | 32.45238 | 70.05957 | 33929 ft | 452 kts | 310° |
| 2026-05-08 06:33 | 32.49144 | 70.00119 | 33949 ft | 452 kts | 310° |
| 2026-05-08 06:33 | 32.53042 | 69.94269 | 33946 ft | 451 kts | 310° |
| 2026-05-08 06:34 | 32.56926 | 69.88419 | 33985 ft | 452 kts | 309° |
| 2026-05-08 06:34 | 32.60819 | 69.82547 | 33969 ft | 453 kts | 309° |
| 2026-05-08 06:35 | 32.64713 | 69.76672 | 33973 ft | 453 kts | 309° |
| 2026-05-08 06:35 | 32.68600 | 69.70803 | 33971 ft | 452 kts | 309° |
| 2026-05-08 06:36 | 32.72480 | 69.64918 | 33984 ft | 453 kts | 309° |
| 2026-05-08 06:36 | 32.76361 | 69.59028 | 34001 ft | 453 kts | 309° |
| 2026-05-08 06:37 | 32.80253 | 69.53118 | 33988 ft | 454 kts | 309° |
| 2026-05-08 06:37 | 32.84148 | 69.47191 | 33987 ft | 455 kts | 309° |
| 2026-05-08 06:38 | 32.88044 | 69.41253 | 33991 ft | 456 kts | 309° |
| 2026-05-08 06:38 | 32.91939 | 69.35289 | 34006 ft | 456 kts | 309° |
| 2026-05-08 06:39 | 32.95806 | 69.29354 | 34007 ft | 456 kts | 309° |
| 2026-05-08 06:39 | 32.99691 | 69.23384 | 34024 ft | 456 kts | 309° |
| 2026-05-08 06:40 | 33.03573 | 69.17410 | 34000 ft | 455 kts | 309° |
| 2026-05-08 06:40 | 33.07438 | 69.11452 | 34023 ft | 453 kts | 309° |
| 2026-05-08 06:41 | 33.11281 | 69.05512 | 34029 ft | 451 kts | 309° |
| 2026-05-08 06:41 | 33.15109 | 68.99597 | 34027 ft | 450 kts | 309° |
| 2026-05-08 06:42 | 33.18935 | 68.93673 | 34027 ft | 451 kts | 309° |
| 2026-05-08 06:42 | 33.22764 | 68.87731 | 34015 ft | 452 kts | 309° |
| 2026-05-08 06:43 | 33.26598 | 68.81774 | 34004 ft | 452 kts | 309° |
| 2026-05-08 06:43 | 33.30564 | 68.75955 | 33999 ft | 452 kts | 311° |
| 2026-05-08 06:44 | 33.34668 | 68.70258 | 33999 ft | 452 kts | 312° |
| 2026-05-08 06:44 | 33.38745 | 68.64586 | 34005 ft | 453 kts | 311° |
| 2026-05-08 06:45 | 33.42838 | 68.58848 | 33997 ft | 453 kts | 311° |
| 2026-05-08 06:45 | 33.46928 | 68.53096 | 34014 ft | 454 kts | 311° |
| 2026-05-08 06:46 | 33.51016 | 68.47339 | 34004 ft | 454 kts | 311° |
| 2026-05-08 06:46 | 33.55102 | 68.41575 | 34041 ft | 454 kts | 311° |
| 2026-05-08 06:47 | 33.59127 | 68.35734 | 34042 ft | 454 kts | 310° |
| 2026-05-08 06:47 | 33.63118 | 68.29850 | 34071 ft | 454 kts | 310° |
| 2026-05-08 06:48 | 33.67103 | 68.23984 | 34090 ft | 452 kts | 310° |
| 2026-05-08 06:48 | 33.71086 | 68.18121 | 34093 ft | 453 kts | 310° |
| 2026-05-08 06:49 | 33.75070 | 68.12255 | 34134 ft | 453 kts | 310° |
| 2026-05-08 06:49 | 33.79054 | 68.06381 | 34115 ft | 454 kts | 310° |
| 2026-05-08 06:50 | 33.83036 | 68.00497 | 34123 ft | 453 kts | 310° |
| 2026-05-08 06:50 | 33.87011 | 67.94615 | 34119 ft | 453 kts | 310° |
| 2026-05-08 06:51 | 33.90975 | 67.88739 | 34138 ft | 452 kts | 310° |
| 2026-05-08 06:51 | 33.94939 | 67.82854 | 34146 ft | 452 kts | 310° |
| 2026-05-08 06:52 | 33.98877 | 67.76993 | 34158 ft | 453 kts | 310° |
| 2026-05-08 06:52 | 34.02823 | 67.71046 | 34147 ft | 454 kts | 310° |
| 2026-05-08 06:53 | 34.06744 | 67.65101 | 34168 ft | 452 kts | 310° |
| 2026-05-08 06:53 | 34.10662 | 67.59155 | 34170 ft | 452 kts | 310° |
| 2026-05-08 06:54 | 34.13913 | 67.54220 | 34151 ft | 452 kts | 310° |
| 2026-05-08 06:54 | 34.17826 | 67.48272 | 34161 ft | 453 kts | 310° |
| 2026-05-08 06:55 | 34.21742 | 67.42310 | 34160 ft | 453 kts | 310° |
| 2026-05-08 06:55 | 34.25663 | 67.36330 | 34158 ft | 454 kts | 310° |
| 2026-05-08 06:56 | 34.29583 | 67.30341 | 34172 ft | 454 kts | 310° |
| 2026-05-08 06:56 | 34.33498 | 67.24351 | 34159 ft | 454 kts | 310° |
| 2026-05-08 06:57 | 34.37413 | 67.18350 | 34175 ft | 454 kts | 309° |
| 2026-05-08 06:57 | 34.41326 | 67.12344 | 34168 ft | 454 kts | 309° |
| 2026-05-08 06:58 | 34.45237 | 67.06326 | 34164 ft | 454 kts | 309° |
| 2026-05-08 06:58 | 34.49117 | 67.00348 | 34173 ft | 454 kts | 309° |
| 2026-05-08 06:59 | 34.53024 | 66.94321 | 34192 ft | 455 kts | 309° |
| 2026-05-08 06:59 | 34.56928 | 66.88278 | 34172 ft | 456 kts | 309° |
| 2026-05-08 07:00 | 34.60839 | 66.82198 | 34174 ft | 458 kts | 308° |
| 2026-05-08 07:00 | 34.64750 | 66.76105 | 34195 ft | 458 kts | 309° |
| 2026-05-08 07:01 | 34.68668 | 66.69993 | 34192 ft | 458 kts | 308° |
| 2026-05-08 07:01 | 34.72581 | 66.63880 | 34199 ft | 458 kts | 308° |
| 2026-05-08 07:02 | 34.76495 | 66.57755 | 34191 ft | 457 kts | 308° |
| 2026-05-08 07:02 | 34.80392 | 66.51646 | 34189 ft | 457 kts | 308° |